Terminal Aerodrome Forecast
Issued by NWS

Home | Current Version | Previous Version | Text Only | Print | Product List | Glossary On
Versions: 1 2 3 4 5 6 7 8 9 10 11 12 13 14 15 16 17 18 19 20 21 22 23 24 25 26 27 28
084
FTUS43 KILX 212335
TAFDEC
TAF
KDEC 212335Z 2200/2224 VRB03KT P6SM BKN035
     FM220600 19004KT 3SM BR SCT035
     FM220800 22004KT 1 1/2SM BR SCT010
     FM221500 20005KT P6SM FEW008
     FM221900 20009KT P6SM SCT100=

USA.gov is the U.S. government's official web portal to all federal, state and local government web resources and services.